Time;durP1;ratioP1;P1;durP2;ratioP2;P2;SDS_P1;SDS_P2;PMS_P1;PMS_P2;Temp;Humidity;BMP_temperature;BMP_pressure;BME280_temperature;BME280_humidity;BME280_pressure;Samples;Min_cycle;Max_cycle;Signal;HPM_P1;HPM_P2
2021/11/13 00:02:21;;;;;;;1.90;1.52;;;19.10;64.00;;;;;;5034538;28;20033;-27
2021/11/13 00:04:47;;;;;;;1.85;1.05;;;19.10;64.10;;;;;;5037121;28;20075;-27
2021/11/13 00:07:13;;;;;;;1.83;1.55;;;19.10;64.00;;;;;;5032102;28;20034;-31
2021/11/13 00:09:38;;;;;;;1.70;1.33;;;19.10;64.10;;;;;;5031999;28;20026;-28
2021/11/13 00:12:05;;;;;;;1.45;1.20;;;19.10;64.00;;;;;;5013191;28;20057;-29
2021/11/13 00:14:31;;;;;;;2.45;1.17;;;19.10;64.10;;;;;;5032217;28;20030;-31
2021/11/13 00:16:57;;;;;;;2.30;1.20;;;19.10;64.00;;;;;;5017135;28;20061;-26
2021/11/13 00:19:22;;;;;;;3.58;1.50;;;19.10;64.20;;;;;;5028946;28;20533;-26
2021/11/13 00:21:48;;;;;;;2.83;1.20;;;19.10;64.20;;;;;;5017001;28;20447;-29
2021/11/13 00:24:13;;;;;;;1.60;1.15;;;19.10;64.20;;;;;;4994599;28;20060;-31
2021/11/13 00:26:39;;;;;;;1.77;1.20;;;19.10;64.20;;;;;;5016152;28;20053;-34
2021/11/13 00:29:05;;;;;;;2.03;1.20;;;19.00;64.10;;;;;;5017000;28;20018;-26
2021/11/13 00:31:31;;;;;;;1.30;1.20;;;19.10;64.20;;;;;;5016900;28;20053;-28
2021/11/13 00:33:57;;;;;;;2.00;1.35;;;19.00;64.20;;;;;;4995802;28;20483;-26
2021/11/13 00:36:22;;;;;;;1.50;1.38;;;19.00;64.30;;;;;;5014832;28;20022;-28
2021/11/13 00:38:48;;;;;;;1.60;1.25;;;19.00;64.30;;;;;;5012852;28;20030;-31
2021/11/13 00:41:13;;;;;;;3.17;1.15;;;19.00;64.40;;;;;;5028710;28;20026;-29
2021/11/13 00:43:39;;;;;;;2.20;1.10;;;19.00;64.40;;;;;;4998567;28;20057;-27
2021/11/13 00:46:05;;;;;;;1.38;1.27;;;19.00;64.40;;;;;;5016314;28;20073;-28
2021/11/13 00:48:31;;;;;;;1.20;1.02;;;18.90;64.30;;;;;;5015229;28;20049;-29
2021/11/13 00:50:56;;;;;;;1.90;1.00;;;19.00;64.30;;;;;;5010605;28;20037;-27
2021/11/13 00:53:22;;;;;;;1.60;1.20;;;19.00;64.30;;;;;;4992988;28;20505;-29
2021/11/13 00:55:48;;;;;;;2.40;1.30;;;19.00;64.20;;;;;;5028860;28;20038;-30
2021/11/13 00:58:13;;;;;;;1.73;1.50;;;19.00;64.20;;;;;;4995659;28;20120;-30
2021/11/13 01:00:39;;;;;;;1.17;1.08;;;19.00;64.30;;;;;;4995595;28;20515;-31
2021/11/13 01:03:04;;;;;;;1.75;1.17;;;19.00;64.20;;;;;;4998682;28;20697;-35
2021/11/13 01:05:31;;;;;;;1.58;1.10;;;19.00;64.30;;;;;;5021667;28;20523;-33
2021/11/13 01:07:57;;;;;;;6.70;1.35;;;19.00;64.20;;;;;;5023029;28;20498;-27
2021/11/13 01:10:23;;;;;;;1.50;0.93;;;18.90;64.10;;;;;;5014397;28;20022;-25
2021/11/13 01:12:48;;;;;;;1.33;1.00;;;19.00;64.10;;;;;;5031935;28;20371;-25
2021/11/13 01:15:14;;;;;;;2.08;1.02;;;18.90;64.20;;;;;;5019518;28;20038;-27
2021/11/13 01:17:40;;;;;;;1.38;1.00;;;19.00;64.20;;;;;;4996835;28;20080;-29
2021/11/13 01:20:07;;;;;;;2.25;1.10;;;19.00;64.20;;;;;;5018742;28;20029;-28
2021/11/13 01:22:33;;;;;;;1.80;1.00;;;18.90;64.20;;;;;;5036064;28;20040;-32
2021/11/13 01:24:58;;;;;;;1.23;1.00;;;18.90;64.20;;;;;;5035974;28;20030;-26
2021/11/13 01:27:24;;;;;;;1.45;1.05;;;19.00;64.10;;;;;;5036224;28;20018;-25
2021/11/13 01:29:49;;;;;;;1.45;1.08;;;19.00;64.00;;;;;;5036187;28;20030;-27
2021/11/13 01:32:16;;;;;;;1.85;1.05;;;18.90;64.10;;;;;;5038486;28;20071;-33
2021/11/13 01:34:42;;;;;;;1.30;1.20;;;19.00;64.10;;;;;;5008398;28;20041;-26
2021/11/13 01:37:08;;;;;;;1.95;1.40;;;18.90;64.10;;;;;;5011220;28;20047;-27
2021/11/13 01:39:33;;;;;;;1.58;1.10;;;18.90;64.00;;;;;;5039684;28;20030;-29
2021/11/13 01:41:59;;;;;;;1.50;1.15;;;19.00;64.10;;;;;;5040004;28;20079;-29
2021/11/13 01:44:25;;;;;;;1.10;0.93;;;18.90;64.00;;;;;;5039524;28;20048;-27
2021/11/13 01:46:50;;;;;;;1.75;1.05;;;18.90;64.00;;;;;;5039901;28;20049;-29
2021/11/13 01:49:16;;;;;;;1.13;1.02;;;18.90;64.00;;;;;;5010950;28;20050;-30
2021/11/13 01:51:45;;;;;;;1.35;0.80;;;18.90;64.00;;;;;;5000230;28;20082;-24
2021/11/13 01:54:11;;;;;;;1.52;1.20;;;18.90;64.00;;;;;;5000024;28;20029;-29
2021/11/13 01:56:40;;;;;;;1.67;1.10;;;18.90;64.00;;;;;;5015135;28;20050;-30
2021/11/13 01:59:06;;;;;;;7.20;1.00;;;18.90;64.10;;;;;;5000013;28;20026;-28
2021/11/13 02:01:32;;;;;;;1.55;1.00;;;18.90;64.00;;;;;;4999921;28;20561;-28
2021/11/13 02:03:58;;;;;;;1.20;1.00;;;18.90;64.00;;;;;;5023042;28;20022;-27
2021/11/13 02:06:24;;;;;;;0.95;0.70;;;18.90;64.00;;;;;;5009469;28;20056;-30
2021/11/13 02:08:50;;;;;;;1.02;0.95;;;18.90;64.10;;;;;;5039023;28;20030;-27
2021/11/13 02:11:17;;;;;;;1.40;1.08;;;18.90;64.00;;;;;;5033491;28;20120;-27
2021/11/13 02:13:43;;;;;;;2.72;0.93;;;18.90;64.10;;;;;;5019385;28;20041;-30
2021/11/13 02:16:09;;;;;;;1.05;0.95;;;18.90;64.00;;;;;;5016169;28;20026;-29
2021/11/13 02:18:38;;;;;;;1.38;1.00;;;18.90;64.00;;;;;;4999068;28;20061;-29
2021/11/13 02:21:04;;;;;;;2.92;0.95;;;18.90;63.80;;;;;;4999612;28;20434;-29
2021/11/13 02:23:30;;;;;;;1.65;1.25;;;18.90;63.80;;;;;;4999605;28;20044;-24
2021/11/13 02:25:56;;;;;;;2.00;1.13;;;18.90;63.90;;;;;;4999525;28;20046;-27
2021/11/13 02:28:25;;;;;;;1.42;0.98;;;18.90;63.90;;;;;;4999561;28;20031;-31
2021/11/13 02:30:52;;;;;;;1.48;1.10;;;18.90;63.90;;;;;;5016492;28;20117;-26
2021/11/13 02:33:17;;;;;;;1.17;0.90;;;18.90;64.00;;;;;;5016302;28;20036;-29
2021/11/13 02:35:44;;;;;;;1.45;1.00;;;18.80;64.00;;;;;;4999299;28;20019;-24
2021/11/13 02:38:14;;;;;;;2.22;1.40;;;18.90;64.00;;;;;;5037911;28;20036;-25
2021/11/13 02:40:44;;;;;;;1.10;1.00;;;18.90;64.00;;;;;;5034196;28;20022;-30
2021/11/13 02:43:10;;;;;;;1.58;1.10;;;18.90;64.00;;;;;;5018426;28;20450;-32
2021/11/13 02:45:36;;;;;;;1.45;1.27;;;18.90;64.00;;;;;;5018453;28;20046;-25
2021/11/13 02:48:02;;;;;;;1.92;1.40;;;18.90;63.90;;;;;;5018901;28;20109;-26
2021/11/13 02:50:28;;;;;;;1.25;0.93;;;18.90;63.90;;;;;;5018141;28;20037;-28
2021/11/13 02:52:55;;;;;;;2.30;1.20;;;18.90;63.90;;;;;;5017897;28;20076;-29
2021/11/13 02:55:21;;;;;;;1.27;1.10;;;18.90;63.90;;;;;;5014864;28;20022;-33
2021/11/13 02:57:47;;;;;;;1.60;1.30;;;18.90;63.90;;;;;;4998971;28;20105;-24
2021/11/13 03:00:14;;;;;;;1.33;1.23;;;18.90;63.90;;;;;;4999641;28;20060;-31
2021/11/13 03:02:40;;;;;;;2.38;1.08;;;18.90;63.90;;;;;;5018469;28;20025;-32
2021/11/13 03:05:27;;;;;;;1.38;0.90;;;18.90;63.90;;;;;;5018160;28;20026;-34
2021/11/13 03:07:53;;;;;;;1.40;1.00;;;18.90;63.80;;;;;;5032627;28;20076;-31
2021/11/13 03:10:19;;;;;;;2.03;1.17;;;18.90;63.80;;;;;;5037935;28;20025;-25
2021/11/13 03:12:45;;;;;;;1.33;1.20;;;18.90;64.00;;;;;;5004778;28;20083;-34
2021/11/13 03:15:12;;;;;;;1.88;1.00;;;18.80;64.00;;;;;;5010402;28;20490;-32
2021/11/13 03:17:39;;;;;;;1.52;1.08;;;18.80;64.00;;;;;;5012579;28;20483;-27
2021/11/13 03:20:05;;;;;;;1.60;1.38;;;18.80;64.00;;;;;;4997322;28;20038;-33
2021/11/13 03:22:32;;;;;;;2.60;1.35;;;18.80;64.00;;;;;;5006428;28;20514;-26
2021/11/13 03:24:58;;;;;;;1.60;1.08;;;18.80;64.00;;;;;;5017777;28;20483;-29
2021/11/13 03:27:23;;;;;;;2.33;1.13;;;18.80;64.00;;;;;;5018068;28;20040;-25
2021/11/13 03:29:49;;;;;;;2.50;1.17;;;18.80;64.00;;;;;;5017991;28;20105;-31
2021/11/13 03:32:15;;;;;;;1.27;1.10;;;18.80;64.00;;;;;;5017950;28;20608;-30
2021/11/13 03:34:40;;;;;;;1.33;1.00;;;18.80;64.00;;;;;;5017802;28;20076;-28
2021/11/13 03:37:06;;;;;;;1.23;1.05;;;18.80;64.80;;;;;;5011066;28;20038;-29
2021/11/13 03:39:32;;;;;;;1.50;1.40;;;18.80;64.10;;;;;;4997918;28;20030;-29
2021/11/13 03:41:57;;;;;;;3.17;1.23;;;18.80;64.10;;;;;;4998192;28;20522;-30
2021/11/13 03:44:23;;;;;;;1.95;1.58;;;18.80;64.10;;;;;;4997866;28;20050;-27
2021/11/13 03:46:48;;;;;;;1.40;0.98;;;18.80;64.20;;;;;;4997927;28;20030;-28
2021/11/13 03:49:15;;;;;;;3.22;1.10;;;18.80;64.30;;;;;;4997925;28;20463;-31
2021/11/13 03:51:41;;;;;;;1.35;1.00;;;18.80;64.20;;;;;;5002971;28;20026;-32
2021/11/13 03:54:06;;;;;;;1.98;1.30;;;18.80;64.40;;;;;;5015030;28;20037;-26
2021/11/13 03:56:32;;;;;;;1.83;1.30;;;18.70;64.50;;;;;;4999655;28;20034;-29
2021/11/13 03:58:57;;;;;;;2.10;1.40;;;18.70;64.60;;;;;;4997716;28;20140;-28
2021/11/13 04:01:23;;;;;;;1.20;0.90;;;18.70;64.50;;;;;;4997727;28;20048;-27
2021/11/13 04:03:49;;;;;;;1.40;1.00;;;18.70;64.60;;;;;;5006722;28;20026;-30
2021/11/13 04:06:14;;;;;;;1.67;1.30;;;18.70;64.50;;;;;;5002733;28;20040;-29
2021/11/13 04:08:40;;;;;;;2.38;1.10;;;18.70;64.60;;;;;;5017107;28;20026;-25
2021/11/13 04:11:05;;;;;;;1.80;1.08;;;18.70;64.60;;;;;;5013397;28;20042;-28
2021/11/13 04:13:31;;;;;;;1.27;0.95;;;18.70;64.60;;;;;;4997633;28;20026;-25
2021/11/13 04:15:57;;;;;;;1.60;1.08;;;18.70;64.60;;;;;;4997828;28;20026;-27
2021/11/13 04:18:22;;;;;;;2.15;1.20;;;18.70;64.60;;;;;;5009730;28;20093;-27
2021/11/13 04:20:48;;;;;;;1.85;1.05;;;18.70;64.70;;;;;;5016992;28;20025;-25
2021/11/13 04:23:13;;;;;;;1.20;0.93;;;18.70;64.60;;;;;;5005928;28;20042;-29
2021/11/13 04:25:39;;;;;;;2.00;1.20;;;18.70;64.70;;;;;;4997247;28;20032;-29
2021/11/13 04:28:05;;;;;;;1.20;1.05;;;18.60;64.80;;;;;;4997415;28;20403;-27
2021/11/13 04:30:30;;;;;;;2.13;1.27;;;18.60;64.90;;;;;;4997429;28;20049;-30
2021/11/13 04:32:56;;;;;;;1.30;1.00;;;18.70;64.60;;;;;;4997595;28;20085;-30
2021/11/13 04:35:24;;;;;;;1.45;1.10;;;18.70;64.70;;;;;;4997237;28;20023;-31
2021/11/13 04:37:54;;;;;;;1.35;1.00;;;18.60;64.80;;;;;;4999720;28;20114;-27
2021/11/13 04:40:21;;;;;;;1.08;0.80;;;18.60;64.80;;;;;;4996846;28;20372;-29
2021/11/13 04:42:47;;;;;;;3.03;1.25;;;18.60;64.80;;;;;;4997476;28;20126;-30
2021/11/13 04:45:13;;;;;;;1.58;1.00;;;18.60;65.00;;;;;;4997021;28;20548;-29
2021/11/13 04:47:38;;;;;;;1.23;0.88;;;18.60;64.90;;;;;;4997095;28;20022;-27
2021/11/13 04:50:06;;;;;;;1.25;0.90;;;18.50;65.00;;;;;;4997062;28;20027;-27
2021/11/13 04:52:32;;;;;;;1.23;1.00;;;18.60;65.00;;;;;;5012225;28;20027;-28
2021/11/13 04:54:57;;;;;;;1.13;0.70;;;18.60;65.00;;;;;;4996967;28;20510;-27
2021/11/13 04:57:23;;;;;;;1.08;0.77;;;18.60;65.00;;;;;;4997091;28;20026;-26
2021/11/13 04:59:49;;;;;;;2.33;0.95;;;18.50;64.90;;;;;;4997242;28;20142;-30
2021/11/13 05:02:14;;;;;;;1.80;1.00;;;18.50;65.00;;;;;;4996984;28;20034;-27
2021/11/13 05:04:40;;;;;;;1.70;0.98;;;18.50;64.90;;;;;;5012519;28;20030;-26
2021/11/13 05:07:05;;;;;;;1.35;0.85;;;18.60;65.00;;;;;;5029160;28;20021;-30
2021/11/13 05:09:31;;;;;;;0.82;0.70;;;18.50;65.10;;;;;;5040371;28;20077;-28
2021/11/13 05:11:57;;;;;;;1.20;0.80;;;18.60;65.00;;;;;;5026667;28;20502;-23
2021/11/13 05:14:22;;;;;;;1.05;0.70;;;18.50;65.00;;;;;;5020515;28;20022;-25
2021/11/13 05:16:48;;;;;;;1.80;1.05;;;18.50;65.10;;;;;;5009131;28;20041;-26
2021/11/13 05:19:13;;;;;;;1.70;0.77;;;18.50;65.00;;;;;;5000648;28;20026;-31
2021/11/13 05:21:39;;;;;;;1.25;0.95;;;18.50;64.90;;;;;;5000876;28;20494;-31
2021/11/13 05:24:05;;;;;;;1.10;0.80;;;18.60;65.80;;;;;;5000509;28;20157;-26
2021/11/13 05:26:30;;;;;;;1.42;0.88;;;18.60;64.60;;;;;;5000541;28;20117;-34
2021/11/13 05:28:56;;;;;;;1.65;0.88;;;18.60;64.80;;;;;;5000679;28;20015;-29
2021/11/13 05:31:22;;;;;;;1.55;0.90;;;18.50;65.00;;;;;;5010081;28;20026;-27
2021/11/13 05:33:47;;;;;;;0.90;0.70;;;18.50;64.90;;;;;;5020128;28;20022;-27
2021/11/13 05:36:13;;;;;;;0.88;0.70;;;18.50;64.90;;;;;;5012562;28;20043;-27
2021/11/13 05:38:38;;;;;;;0.75;0.68;;;18.50;64.90;;;;;;5000225;28;20090;-28
2021/11/13 05:41:04;;;;;;;1.35;0.95;;;18.50;65.00;;;;;;5000398;28;20406;-29
2021/11/13 05:43:30;;;;;;;0.73;0.65;;;18.60;64.90;;;;;;5000234;28;20062;-30
2021/11/13 05:45:56;;;;;;;0.90;0.70;;;18.50;64.90;;;;;;5000000;28;20050;-27
2021/11/13 05:48:21;;;;;;;1.65;0.73;;;18.50;65.00;;;;;;5000296;28;20030;-29
2021/11/13 05:50:47;;;;;;;0.55;0.50;;;18.40;65.00;;;;;;5006384;28;20030;-30
2021/11/13 05:53:12;;;;;;;0.93;0.70;;;18.50;65.00;;;;;;5019479;28;20033;-27
2021/11/13 05:55:38;;;;;;;0.95;0.60;;;18.50;65.00;;;;;;5018543;28;20475;-29
2021/11/13 05:58:04;;;;;;;0.80;0.50;;;18.50;64.80;;;;;;5019789;28;20025;-32
2021/11/13 06:00:30;;;;;;;1.10;0.85;;;18.60;64.70;;;;;;5019883;28;20080;-30
2021/11/13 06:02:56;;;;;;;0.75;0.60;;;18.50;64.60;;;;;;5019750;28;20030;-27
2021/11/13 06:05:22;;;;;;;0.75;0.68;;;18.60;64.60;;;;;;5014704;28;20085;-31
2021/11/13 06:07:47;;;;;;;0.90;0.68;;;18.60;64.60;;;;;;5032340;28;20021;-30
2021/11/13 06:10:14;;;;;;;1.75;0.70;;;18.60;64.60;;;;;;5037790;28;20489;-30
2021/11/13 06:12:39;;;;;;;0.57;0.50;;;18.50;64.60;;;;;;5019329;28;20108;-32
2021/11/13 06:15:06;;;;;;;0.82;0.50;;;18.50;64.80;;;;;;5019452;28;20529;-28
2021/11/13 06:17:31;;;;;;;0.70;0.50;;;18.50;64.80;;;;;;5018930;28;20029;-26
2021/11/13 06:19:57;;;;;;;0.60;0.60;;;18.50;64.60;;;;;;5018383;28;20555;-28
2021/11/13 06:22:23;;;;;;;0.75;0.50;;;18.50;64.60;;;;;;5019251;28;20651;-25
2021/11/13 06:24:48;;;;;;;0.90;0.65;;;18.60;64.60;;;;;;5017040;28;20456;-32
2021/11/13 06:27:16;;;;;;;0.82;0.57;;;18.60;64.50;;;;;;5019190;28;20026;-24
2021/11/13 06:29:42;;;;;;;1.15;0.50;;;18.60;64.40;;;;;;5019342;28;20471;-31
2021/11/13 06:32:08;;;;;;;1.55;0.47;;;18.60;64.40;;;;;;5001198;28;20034;-30
2021/11/13 06:34:33;;;;;;;0.50;0.50;;;18.60;64.30;;;;;;4999497;28;20458;-29
2021/11/13 06:36:59;;;;;;;1.15;0.82;;;18.60;64.30;;;;;;4999369;28;20468;-28
2021/11/13 06:39:24;;;;;;;0.77;0.50;;;18.60;64.20;;;;;;4999255;28;20073;-31
2021/11/13 06:41:50;;;;;;;0.63;0.40;;;18.60;64.20;;;;;;4999360;28;20448;-29
2021/11/13 06:44:16;;;;;;;0.35;0.35;;;18.60;64.30;;;;;;4999050;28;20029;-34
2021/11/13 06:46:41;;;;;;;0.52;0.40;;;18.60;64.30;;;;;;5014286;28;20125;-32
2021/11/13 06:49:07;;;;;;;0.63;0.50;;;18.60;64.30;;;;;;5015998;28;20038;-30
2021/11/13 06:51:33;;;;;;;0.65;0.63;;;18.60;64.20;;;;;;5017629;28;20025;-27
2021/11/13 06:53:59;;;;;;;0.40;0.40;;;18.60;64.20;;;;;;5018436;28;20037;-27
2021/11/13 06:56:25;;;;;;;0.40;0.40;;;18.60;64.20;;;;;;5005260;28;20069;-29
2021/11/13 06:58:51;;;;;;;0.50;0.40;;;18.60;64.20;;;;;;5017165;28;20052;-28
2021/11/13 07:01:16;;;;;;;1.10;0.75;;;18.60;64.10;;;;;;5016616;28;20033;-28
2021/11/13 07:03:42;;;;;;;0.60;0.50;;;18.60;64.10;;;;;;5022231;28;20467;-28
2021/11/13 07:06:08;;;;;;;0.70;0.50;;;18.60;64.10;;;;;;5009340;28;20083;-32
2021/11/13 07:08:33;;;;;;;0.63;0.40;;;18.60;64.10;;;;;;5011261;28;20065;-28
2021/11/13 07:10:59;;;;;;;0.40;0.40;;;18.60;64.10;;;;;;5002157;28;20073;-28
2021/11/13 07:13:25;;;;;;;0.50;0.40;;;18.60;64.20;;;;;;5018302;28;20077;-29
2021/11/13 07:15:50;;;;;;;0.43;0.43;;;18.60;64.20;;;;;;5018096;28;20026;-29
2021/11/13 07:18:16;;;;;;;0.70;0.50;;;18.60;64.20;;;;;;5035029;28;20072;-28
2021/11/13 07:20:42;;;;;;;1.42;0.68;;;18.60;64.20;;;;;;5036715;28;20052;-31
2021/11/13 07:23:07;;;;;;;0.45;0.30;;;18.60;64.20;;;;;;5037080;28;20026;-29
2021/11/13 07:25:33;;;;;;;0.50;0.30;;;18.60;64.20;;;;;;5030451;28;20025;-25
2021/11/13 07:28:07;;;;;;;0.68;0.35;;;18.60;64.20;;;;;;5033950;28;20132;-28
2021/11/13 07:30:42;;;;;;;0.32;0.32;;;18.60;64.10;;;;;;5016971;28;20100;-29
2021/11/13 07:33:11;;;;;;;0.50;0.40;;;18.60;64.10;;;;;;5015996;28;20034;-30
2021/11/13 07:35:37;;;;;;;0.57;0.40;;;18.60;64.10;;;;;;5000429;28;20077;-32
2021/11/13 07:38:03;;;;;;;0.55;0.40;;;18.60;64.00;;;;;;5012150;28;20034;-28
2021/11/13 07:40:29;;;;;;;0.38;0.32;;;18.60;64.10;;;;;;5017265;28;20479;-29
2021/11/13 07:42:54;;;;;;;0.40;0.40;;;18.50;64.40;;;;;;5017857;28;20048;-28
2021/11/13 07:45:20;;;;;;;0.68;0.57;;;18.60;64.30;;;;;;5012162;28;20381;-28
2021/11/13 07:47:46;;;;;;;1.02;0.40;;;18.50;64.60;;;;;;4998155;28;20029;-28
2021/11/13 07:50:13;;;;;;;1.10;0.43;;;18.40;64.70;;;;;;5008332;28;20030;-28
2021/11/13 07:52:39;;;;;;;0.70;0.40;;;18.50;64.60;;;;;;5017472;28;20018;-30
2021/11/13 07:55:05;;;;;;;0.55;0.35;;;18.50;64.50;;;;;;5017375;28;20014;-33
2021/11/13 07:57:30;;;;;;;0.30;0.30;;;18.50;64.60;;;;;;5010149;28;20065;-27
2021/11/13 07:59:56;;;;;;;1.20;0.40;;;18.50;64.70;;;;;;5010354;28;20022;-29
2021/11/13 08:02:22;;;;;;;0.35;0.30;;;18.40;64.90;;;;;;4999102;28;20471;-27
2021/11/13 08:04:47;;;;;;;0.88;0.43;;;18.40;65.30;;;;;;4657500;28;10000073;-33
2021/11/13 08:07:13;;;;;;;1.75;0.77;;;18.40;65.40;;;;;;5007656;28;20721;-24
2021/11/13 08:09:38;;;;;;;5.35;2.72;;;18.40;66.30;;;;;;5029431;28;20101;-29
2021/11/13 08:12:04;;;;;;;6.80;3.80;;;18.50;67.40;;;;;;5043143;28;20050;-29
2021/11/13 08:14:30;;;;;;;8.95;4.75;;;18.50;67.50;;;;;;5015317;28;20046;-28
2021/11/13 08:16:55;;;;;;;5.90;3.63;;;18.60;67.30;;;;;;5018776;28;20052;-24
2021/11/13 08:19:21;;;;;;;5.65;3.65;;;18.60;66.80;;;;;;5051863;28;20067;-29
2021/11/13 08:21:46;;;;;;;9.68;3.83;;;18.60;66.50;;;;;;5043015;28;20037;-29
2021/11/13 08:24:12;;;;;;;8.48;3.83;;;18.60;66.30;;;;;;5002030;28;20046;-27
2021/11/13 08:26:38;;;;;;;5.68;4.00;;;18.60;66.30;;;;;;5012905;28;20042;-25
2021/11/13 08:29:03;;;;;;;6.60;3.90;;;18.70;66.10;;;;;;5024696;28;20045;-29
2021/11/13 08:31:29;;;;;;;4.18;3.30;;;18.70;66.20;;;;;;5030608;28;20038;-27
2021/11/13 08:33:55;;;;;;;6.95;3.47;;;18.70;66.20;;;;;;5044046;28;20116;-30
2021/11/13 08:36:20;;;;;;;3.30;2.65;;;18.70;66.20;;;;;;5035619;28;20032;-29
2021/11/13 08:38:46;;;;;;;4.32;3.53;;;18.70;66.20;;;;;;5031256;28;20021;-31
2021/11/13 08:41:11;;;;;;;5.18;3.90;;;18.70;66.30;;;;;;5034503;28;20017;-25
2021/11/13 08:43:37;;;;;;;3.92;3.00;;;18.70;66.30;;;;;;5032994;28;20040;-27
2021/11/13 08:46:03;;;;;;;5.78;2.90;;;18.70;66.40;;;;;;5029591;28;20133;-31
2021/11/13 08:48:28;;;;;;;4.15;3.72;;;18.70;66.60;;;;;;5018105;28;20049;-35
2021/11/13 08:50:54;;;;;;;3.35;3.05;;;18.70;66.50;;;;;;5033009;28;20052;-30
2021/11/13 08:53:20;;;;;;;4.38;3.15;;;18.70;66.40;;;;;;5037656;28;20033;-29
2021/11/13 08:55:46;;;;;;;3.25;3.05;;;18.70;66.40;;;;;;5045078;28;20044;-29
2021/11/13 08:58:12;;;;;;;4.35;3.10;;;18.70;66.60;;;;;;5046257;28;20045;-37
2021/11/13 09:00:39;;;;;;;3.38;2.83;;;18.70;66.60;;;;;;5037128;28;20489;-28
2021/11/13 09:03:06;;;;;;;3.40;3.10;;;18.70;66.60;;;;;;5036347;28;20418;-29
2021/11/13 09:05:32;;;;;;;3.42;2.35;;;18.70;66.70;;;;;;5029842;28;20113;-27
2021/11/13 09:07:59;;;;;;;2.92;2.33;;;18.70;66.70;;;;;;5022150;28;20500;-27
2021/11/13 09:10:25;;;;;;;3.17;2.80;;;18.70;66.70;;;;;;5026116;28;20904;-27
2021/11/13 09:12:50;;;;;;;3.00;2.80;;;18.80;66.60;;;;;;5030211;28;20101;-26
2021/11/13 09:15:23;;;;;;;3.88;2.90;;;18.70;66.50;;;;;;5028624;28;20068;-29
2021/11/13 09:17:48;;;;;;;2.42;2.33;;;18.80;66.50;;;;;;5035022;28;20034;-32
2021/11/13 09:20:14;;;;;;;2.72;2.53;;;18.70;66.50;;;;;;5034991;28;20419;-27
2021/11/13 09:22:39;;;;;;;3.78;2.95;;;18.80;66.30;;;;;;5029492;28;20049;-27
2021/11/13 09:25:08;;;;;;;3.22;2.90;;;18.80;66.10;;;;;;5021970;28;20036;-29
2021/11/13 09:27:36;;;;;;;3.38;3.10;;;18.80;66.10;;;;;;5034729;28;20021;-27
2021/11/13 09:30:04;;;;;;;4.40;2.90;;;18.80;66.10;;;;;;5032833;28;20030;-27
2021/11/13 09:32:30;;;;;;;3.90;2.65;;;18.80;66.00;;;;;;5014650;28;20121;-29
2021/11/13 09:34:56;;;;;;;4.00;3.03;;;18.80;66.10;;;;;;4682356;28;10000229;-29
2021/11/13 09:37:22;;;;;;;3.00;2.80;;;18.80;66.20;;;;;;5039742;28;20049;-23
2021/11/13 09:39:47;;;;;;;4.40;3.00;;;18.80;66.00;;;;;;5030315;28;20084;-24
2021/11/13 09:42:13;;;;;;;2.85;2.25;;;18.80;65.90;;;;;;5039020;28;20672;-31
2021/11/13 09:44:39;;;;;;;3.45;2.90;;;18.80;65.80;;;;;;5045690;28;20056;-28
2021/11/13 09:47:05;;;;;;;2.63;2.22;;;18.90;65.70;;;;;;5044591;28;20042;-23
2021/11/13 09:49:31;;;;;;;2.60;2.40;;;18.80;65.70;;;;;;5023686;28;20034;-30
2021/11/13 09:51:57;;;;;;;3.30;2.30;;;18.80;65.60;;;;;;5003008;28;20702;-33
2021/11/13 09:54:22;;;;;;;2.42;2.22;;;18.80;65.70;;;;;;5004157;28;20033;-26
2021/11/13 09:56:48;;;;;;;3.10;2.47;;;18.80;65.60;;;;;;5019278;28;20528;-27
2021/11/13 09:59:14;;;;;;;2.78;2.53;;;18.80;65.60;;;;;;5020533;28;20167;-32
2021/11/13 10:01:39;;;;;;;2.75;2.38;;;18.80;65.50;;;;;;5014159;28;20059;-30
2021/11/13 10:04:06;;;;;;;2.67;2.47;;;18.80;65.60;;;;;;5034989;28;20030;-27
2021/11/13 10:06:32;;;;;;;2.45;2.25;;;18.80;65.60;;;;;;5026497;28;20030;-24
2021/11/13 10:08:57;;;;;;;3.03;2.47;;;18.80;65.50;;;;;;5004570;28;20438;-29
2021/11/13 10:11:24;;;;;;;2.72;2.30;;;18.90;65.60;;;;;;5029871;28;20025;-24
2021/11/13 10:13:50;;;;;;;2.38;2.17;;;18.90;65.70;;;;;;5015274;28;20041;-29
2021/11/13 10:16:18;;;;;;;5.95;2.03;;;19.00;65.70;;;;;;5006952;28;20097;-29
2021/11/13 10:18:46;;;;;;;2.63;2.20;;;19.00;65.80;;;;;;5004022;28;20136;-25
2021/11/13 10:21:17;;;;;;;3.15;1.80;;;19.00;65.80;;;;;;5016896;28;20029;-28
2021/11/13 10:23:48;;;;;;;1.80;1.70;;;19.00;65.90;;;;;;5034772;28;20035;-26
2021/11/13 10:26:17;;;;;;;2.92;2.03;;;19.00;65.90;;;;;;4995199;28;20423;-27
2021/11/13 10:29:10;;;;;;;1.90;1.73;;;19.00;66.30;;;;;;5001123;28;20034;-26
2021/11/13 10:31:36;;;;;;;2.22;1.75;;;19.10;65.80;;;;;;5027978;28;20025;-28
2021/11/13 10:34:05;;;;;;;1.92;1.83;;;19.00;65.60;;;;;;5006624;28;20034;-27
2021/11/13 10:36:36;;;;;;;1.85;1.75;;;19.00;66.10;;;;;;4995115;28;20038;-23
2021/11/13 10:39:08;;;;;;;1.90;1.80;;;19.00;65.90;;;;;;4994770;28;20043;-28
2021/11/13 10:41:42;;;;;;;1.98;1.63;;;19.00;65.90;;;;;;4995437;28;20045;-30
2021/11/13 10:44:08;;;;;;;1.70;1.40;;;19.00;65.70;;;;;;5001108;28;20045;-27
2021/11/13 10:46:33;;;;;;;2.35;2.00;;;19.00;65.70;;;;;;5018555;28;20026;-29
2021/11/13 10:48:59;;;;;;;1.73;1.60;;;19.10;65.90;;;;;;5033824;28;20122;-28
2021/11/13 10:51:30;;;;;;;2.33;1.60;;;19.00;65.90;;;;;;5032848;28;20193;-27
2021/11/13 10:53:56;;;;;;;2.08;1.80;;;19.00;65.90;;;;;;5046417;28;20033;-27
2021/11/13 10:56:25;;;;;;;1.80;1.70;;;19.00;65.80;;;;;;4998579;28;20045;-28
2021/11/13 10:58:59;;;;;;;2.20;1.70;;;19.00;65.80;;;;;;4998602;28;20526;-26
2021/11/13 11:01:28;;;;;;;1.85;1.75;;;19.00;65.70;;;;;;5003659;28;20034;-29
2021/11/13 11:03:57;;;;;;;2.75;1.40;;;19.10;66.00;;;;;;5014388;28;20085;-27
2021/11/13 11:06:24;;;;;;;1.60;1.50;;;19.00;66.70;;;;;;5002872;28;20061;-28
2021/11/13 11:08:50;;;;;;;1.92;1.67;;;19.00;66.10;;;;;;5005897;28;20037;-27
2021/11/13 11:11:33;;;;;;;1.70;1.60;;;19.10;65.50;;;;;;4992296;28;20026;-29
2021/11/13 11:14:01;;;;;;;1.67;1.58;;;19.10;65.60;;;;;;5008563;28;20027;-25
2021/11/13 11:16:35;;;;;;;1.92;1.60;;;19.00;65.50;;;;;;5008103;28;20164;-30
2021/11/13 11:19:05;;;;;;;1.73;1.52;;;19.00;65.70;;;;;;5014243;28;20037;-26
2021/11/13 11:21:59;;;;;;;1.55;1.10;;;19.00;65.90;;;;;;5027509;28;20033;-26
2021/11/13 11:24:41;;;;;;;1.92;1.48;;;19.00;65.70;;;;;;5014148;28;20040;-28
2021/11/13 11:27:18;;;;;;;1.38;1.27;;;19.00;65.60;;;;;;5010748;28;20443;-29
2021/11/13 11:29:47;;;;;;;2.75;1.55;;;19.00;65.60;;;;;;5021653;28;20018;-32
2021/11/13 11:32:15;;;;;;;2.05;1.45;;;19.00;65.50;;;;;;5005202;28;20045;-25
2021/11/13 11:34:44;;;;;;;1.17;1.08;;;19.00;65.60;;;;;;5002277;28;20088;-27
2021/11/13 11:37:17;;;;;;;1.13;1.02;;;19.10;65.70;;;;;;5005071;28;20035;-28
2021/11/13 11:39:45;;;;;;;1.55;0.82;;;19.00;65.40;;;;;;5012158;28;20025;-26
2021/11/13 11:42:10;;;;;;;1.40;1.02;;;19.10;65.70;;;;;;5034584;28;20020;-24
2021/11/13 11:44:36;;;;;;;1.27;0.90;;;19.00;66.10;;;;;;5036284;28;20034;-24
2021/11/13 11:47:02;;;;;;;1.20;1.10;;;19.10;66.10;;;;;;5036667;28;20036;-25
2021/11/13 11:49:28;;;;;;;1.40;1.30;;;19.10;66.50;;;;;;5040004;28;20506;-28
2021/11/13 11:51:53;;;;;;;1.10;1.05;;;19.10;66.80;;;;;;5006510;28;20037;-25
2021/11/13 11:54:19;;;;;;;1.08;1.00;;;19.10;66.80;;;;;;5033890;28;20071;-31
2021/11/13 11:56:45;;;;;;;1.80;1.13;;;19.10;66.60;;;;;;5035477;28;20025;-29
2021/11/13 11:59:10;;;;;;;1.20;0.90;;;19.10;66.50;;;;;;5015522;28;20429;-32
2021/11/13 12:01:41;;;;;;;3.35;1.55;;;19.10;66.60;;;;;;5015556;28;20471;-31
2021/11/13 12:04:20;;;;;;;3.47;1.13;;;19.10;66.60;;;;;;5012586;28;20803;-27
2021/11/13 12:06:54;;;;;;;1.27;1.17;;;19.10;66.60;;;;;;5004643;28;20483;-28
2021/11/13 12:09:21;;;;;;;1.20;1.13;;;19.00;66.50;;;;;;5010547;28;20018;-28
2021/11/13 12:11:47;;;;;;;0.80;0.73;;;19.10;66.50;;;;;;5001169;28;20553;-27
2021/11/13 12:14:36;;;;;;;1.02;0.93;;;19.00;66.50;;;;;;5023385;28;20026;-30
2021/11/13 12:17:22;;;;;;;0.63;0.63;;;19.00;66.40;;;;;;5016428;28;20026;-30
2021/11/13 12:20:12;;;;;;;1.15;0.90;;;19.00;66.70;;;;;;4997686;28;20065;-21
2021/11/13 12:22:49;;;;;;;0.85;0.82;;;19.00;67.10;;;;;;4996917;28;20042;-30
2021/11/13 12:25:23;;;;;;;3.55;0.70;;;19.10;68.10;;;;;;5011886;28;20018;-21
2021/11/13 12:28:09;;;;;;;1.65;0.90;;;19.10;67.60;;;;;;5006722;28;20034;-23
2021/11/13 12:30:48;;;;;;;0.93;0.90;;;19.10;67.90;;;;;;5008136;28;20040;-30
2021/11/13 12:33:34;;;;;;;2.03;0.82;;;19.20;67.60;;;;;;4996106;28;20035;-30
2021/11/13 12:36:17;;;;;;;1.23;1.00;;;19.20;67.80;;;;;;4975745;28;20076;-31
2021/11/13 12:38:55;;;;;;;0.63;0.63;;;19.20;67.80;;;;;;5018577;28;20052;-22
2021/11/13 12:41:25;;;;;;;2.17;0.73;;;19.20;68.00;;;;;;5008373;28;20054;-24
2021/11/13 12:43:51;;;;;;;1.98;0.80;;;19.20;67.80;;;;;;5008886;28;20026;-25
2021/11/13 12:46:36;;;;;;;0.90;0.90;;;19.20;67.90;;;;;;4992847;28;20054;-24